sensor_id;sensor_type;location;lat;lon;timestamp;temperature;humidity
12233;DHT22;6179;51.748;8.728;2023-04-24T00:01:43;11.80;92.90
12233;DHT22;6179;51.748;8.728;2023-04-24T00:07:44;11.80;92.70
12233;DHT22;6179;51.748;8.728;2023-04-24T00:13:45;11.40;93.80
12233;DHT22;6179;51.748;8.728;2023-04-24T00:19:49;11.50;93.30
12233;DHT22;6179;51.748;8.728;2023-04-24T00:25:58;11.80;92.40
12233;DHT22;6179;51.748;8.728;2023-04-24T00:31:59;11.70;92.50
12233;DHT22;6179;51.748;8.728;2023-04-24T00:37:59;11.80;91.90
12233;DHT22;6179;51.748;8.728;2023-04-24T00:44:00;11.50;93.30
12233;DHT22;6179;51.748;8.728;2023-04-24T00:50:05;11.50;93.10
12233;DHT22;6179;51.748;8.728;2023-04-24T00:56:06;11.50;92.80
12233;DHT22;6179;51.748;8.728;2023-04-24T01:02:08;11.10;94.30
12233;DHT22;6179;51.748;8.728;2023-04-24T01:08:09;11.00;95.00
12233;DHT22;6179;51.748;8.728;2023-04-24T01:14:10;11.00;94.50
12233;DHT22;6179;51.748;8.728;2023-04-24T01:20:11;11.30;94.30
12233;DHT22;6179;51.748;8.728;2023-04-24T01:26:17;11.40;93.80
12233;DHT22;6179;51.748;8.728;2023-04-24T01:32:20;11.70;92.60
12233;DHT22;6179;51.748;8.728;2023-04-24T01:38:21;11.50;92.50
12233;DHT22;6179;51.748;8.728;2023-04-24T01:44:22;11.60;92.20
12233;DHT22;6179;51.748;8.728;2023-04-24T01:50:23;11.60;91.50
12233;DHT22;6179;51.748;8.728;2023-04-24T01:56:24;11.50;92.10
12233;DHT22;6179;51.748;8.728;2023-04-24T02:02:25;12.10;89.40
12233;DHT22;6179;51.748;8.728;2023-04-24T02:08:27;11.90;89.90
12233;DHT22;6179;51.748;8.728;2023-04-24T02:14:28;11.80;90.50
12233;DHT22;6179;51.748;8.728;2023-04-24T02:20:29;11.90;90.00
12233;DHT22;6179;51.748;8.728;2023-04-24T02:26:29;11.60;90.90
12233;DHT22;6179;51.748;8.728;2023-04-24T02:32:32;11.30;91.70
12233;DHT22;6179;51.748;8.728;2023-04-24T02:38:32;11.30;92.10
12233;DHT22;6179;51.748;8.728;2023-04-24T02:44:33;11.30;92.20
12233;DHT22;6179;51.748;8.728;2023-04-24T02:50:33;11.30;92.60
12233;DHT22;6179;51.748;8.728;2023-04-24T02:56:34;11.20;92.20
12233;DHT22;6179;51.748;8.728;2023-04-24T03:02:35;10.80;93.80
12233;DHT22;6179;51.748;8.728;2023-04-24T03:08:36;10.90;93.70
12233;DHT22;6179;51.748;8.728;2023-04-24T03:14:36;11.10;94.10
12233;DHT22;6179;51.748;8.728;2023-04-24T03:20:37;11.20;93.80
12233;DHT22;6179;51.748;8.728;2023-04-24T03:26:37;11.40;92.90
12233;DHT22;6179;51.748;8.728;2023-04-24T03:32:38;11.30;94.40
12233;DHT22;6179;51.748;8.728;2023-04-24T03:38:39;11.30;94.70
12233;DHT22;6179;51.748;8.728;2023-04-24T03:44:40;11.40;94.50
12233;DHT22;6179;51.748;8.728;2023-04-24T03:50:40;11.50;94.20
12233;DHT22;6179;51.748;8.728;2023-04-24T03:56:41;11.50;94.10
12233;DHT22;6179;51.748;8.728;2023-04-24T04:02:42;11.70;93.90
12233;DHT22;6179;51.748;8.728;2023-04-24T04:08:42;11.70;93.40
12233;DHT22;6179;51.748;8.728;2023-04-24T04:14:43;11.60;95.70
12233;DHT22;6179;51.748;8.728;2023-04-24T04:20:43;10.90;98.30
12233;DHT22;6179;51.748;8.728;2023-04-24T04:26:44;11.00;98.30
12233;DHT22;6179;51.748;8.728;2023-04-24T04:32:47;10.60;98.30
12233;DHT22;6179;51.748;8.728;2023-04-24T04:38:47;10.20;98.30
12233;DHT22;6179;51.748;8.728;2023-04-24T04:44:48;9.80;98.30
12233;DHT22;6179;51.748;8.728;2023-04-24T04:50:50;10.00;98.30
12233;DHT22;6179;51.748;8.728;2023-04-24T04:56:51;9.90;98.30
12233;DHT22;6179;51.748;8.728;2023-04-24T05:02:51;10.00;98.30
12233;DHT22;6179;51.748;8.728;2023-04-24T05:08:52;10.00;98.30
12233;DHT22;6179;51.748;8.728;2023-04-24T05:14:57;10.10;98.30
12233;DHT22;6179;51.748;8.728;2023-04-24T05:20:57;10.20;98.30
12233;DHT22;6179;51.748;8.728;2023-04-24T05:26:59;10.10;97.70
12233;DHT22;6179;51.748;8.728;2023-04-24T05:32:59;10.30;96.80
12233;DHT22;6179;51.748;8.728;2023-04-24T05:39:00;10.20;96.50
12233;DHT22;6179;51.748;8.728;2023-04-24T05:45:01;10.10;96.20
12233;DHT22;6179;51.748;8.728;2023-04-24T05:51:01;10.30;94.50
12233;DHT22;6179;51.748;8.728;2023-04-24T05:57:02;10.20;93.80
12233;DHT22;6179;51.748;8.728;2023-04-24T06:03:09;9.80;94.70
12233;DHT22;6179;51.748;8.728;2023-04-24T06:09:10;9.90;94.80
12233;DHT22;6179;51.748;8.728;2023-04-24T06:15:12;10.00;93.80
12233;DHT22;6179;51.748;8.728;2023-04-24T06:21:13;10.20;93.50
12233;DHT22;6179;51.748;8.728;2023-04-24T06:27:14;10.70;92.20
12233;DHT22;6179;51.748;8.728;2023-04-24T06:33:15;11.10;90.70
12233;DHT22;6179;51.748;8.728;2023-04-24T06:39:16;10.80;90.50
12233;DHT22;6179;51.748;8.728;2023-04-24T06:45:16;10.70;91.90
12233;DHT22;6179;51.748;8.728;2023-04-24T06:51:17;10.70;90.90
12233;DHT22;6179;51.748;8.728;2023-04-24T06:57:18;10.80;90.00
12233;DHT22;6179;51.748;8.728;2023-04-24T07:03:20;10.90;90.40
12233;DHT22;6179;51.748;8.728;2023-04-24T07:09:20;10.70;88.30
12233;DHT22;6179;51.748;8.728;2023-04-24T07:15:22;11.00;89.10
12233;DHT22;6179;51.748;8.728;2023-04-24T07:21:23;10.70;90.00
12233;DHT22;6179;51.748;8.728;2023-04-24T07:27:26;10.90;89.10
12233;DHT22;6179;51.748;8.728;2023-04-24T07:33:27;10.70;89.50
12233;DHT22;6179;51.748;8.728;2023-04-24T07:39:27;10.90;90.10
12233;DHT22;6179;51.748;8.728;2023-04-24T07:45:29;10.60;89.00
12233;DHT22;6179;51.748;8.728;2023-04-24T07:51:31;10.40;89.30
12233;DHT22;6179;51.748;8.728;2023-04-24T07:57:34;10.70;88.80
12233;DHT22;6179;51.748;8.728;2023-04-24T08:03:34;10.90;89.80
12233;DHT22;6179;51.748;8.728;2023-04-24T08:09:35;11.40;87.20
12233;DHT22;6179;51.748;8.728;2023-04-24T08:15:36;11.50;88.40
12233;DHT22;6179;51.748;8.728;2023-04-24T08:21:36;11.50;88.20
12233;DHT22;6179;51.748;8.728;2023-04-24T08:27:37;11.50;88.00
12233;DHT22;6179;51.748;8.728;2023-04-24T08:33:39;11.30;86.90
12233;DHT22;6179;51.748;8.728;2023-04-24T08:39:41;11.10;88.30
12233;DHT22;6179;51.748;8.728;2023-04-24T08:45:41;11.10;89.20
12233;DHT22;6179;51.748;8.728;2023-04-24T08:51:42;11.20;88.60
12233;DHT22;6179;51.748;8.728;2023-04-24T08:57:45;11.30;88.20
12233;DHT22;6179;51.748;8.728;2023-04-24T09:03:50;11.50;89.90
12233;DHT22;6179;51.748;8.728;2023-04-24T09:09:52;11.30;87.70
12233;DHT22;6179;51.748;8.728;2023-04-24T09:15:52;11.50;88.10
12233;DHT22;6179;51.748;8.728;2023-04-24T09:21:54;11.00;88.30
12233;DHT22;6179;51.748;8.728;2023-04-24T09:27:55;10.90;88.60
12233;DHT22;6179;51.748;8.728;2023-04-24T09:34:02;11.20;89.00
12233;DHT22;6179;51.748;8.728;2023-04-24T09:46:11;11.70;86.40
12233;DHT22;6179;51.748;8.728;2023-04-24T09:52:12;11.20;86.30
12233;DHT22;6179;51.748;8.728;2023-04-24T09:58:13;11.30;86.90
12233;DHT22;6179;51.748;8.728;2023-04-24T10:04:20;11.50;87.90
12233;DHT22;6179;51.748;8.728;2023-04-24T10:10:22;11.70;87.10
12233;DHT22;6179;51.748;8.728;2023-04-24T10:16:23;11.90;87.30
12233;DHT22;6179;51.748;8.728;2023-04-24T10:22:24;11.30;87.50
12233;DHT22;6179;51.748;8.728;2023-04-24T10:28:26;11.20;88.60
12233;DHT22;6179;51.748;8.728;2023-04-24T10:34:28;10.50;94.70
12233;DHT22;6179;51.748;8.728;2023-04-24T10:40:35;10.90;94.40
12233;DHT22;6179;51.748;8.728;2023-04-24T10:46:37;10.70;90.90
12233;DHT22;6179;51.748;8.728;2023-04-24T10:52:48;10.90;91.30
12233;DHT22;6179;51.748;8.728;2023-04-24T10:58:53;10.50;90.30
12233;DHT22;6179;51.748;8.728;2023-04-24T11:04:54;10.80;90.00
12233;DHT22;6179;51.748;8.728;2023-04-24T11:10:56;9.70;93.30
12233;DHT22;6179;51.748;8.728;2023-04-24T11:16:57;10.00;94.10
12233;DHT22;6179;51.748;8.728;2023-04-24T11:23:04;9.70;94.10
12233;DHT22;6179;51.748;8.728;2023-04-24T11:29:07;9.10;98.30
12233;DHT22;6179;51.748;8.728;2023-04-24T11:41:18;9.20;98.30
12233;DHT22;6179;51.748;8.728;2023-04-24T11:47:20;9.30;98.30
12233;DHT22;6179;51.748;8.728;2023-04-24T11:53:21;9.90;98.30
12233;DHT22;6179;51.748;8.728;2023-04-24T11:59:22;9.90;98.30
12233;DHT22;6179;51.748;8.728;2023-04-24T12:05:24;9.70;98.30
12233;DHT22;6179;51.748;8.728;2023-04-24T12:11:26;9.60;98.30
12233;DHT22;6179;51.748;8.728;2023-04-24T12:17:29;8.80;98.30
12233;DHT22;6179;51.748;8.728;2023-04-24T12:23:34;8.60;98.30
12233;DHT22;6179;51.748;8.728;2023-04-24T12:29:37;8.70;98.30
12233;DHT22;6179;51.748;8.728;2023-04-24T12:35:54;8.50;98.30
12233;DHT22;6179;51.748;8.728;2023-04-24T12:41:56;8.30;98.30
12233;DHT22;6179;51.748;8.728;2023-04-24T12:47:57;8.30;98.30
12233;DHT22;6179;51.748;8.728;2023-04-24T12:53:58;8.60;98.30
12233;DHT22;6179;51.748;8.728;2023-04-24T12:59:59;8.70;98.30
12233;DHT22;6179;51.748;8.728;2023-04-24T13:05:59;8.70;98.30
12233;DHT22;6179;51.748;8.728;2023-04-24T13:12:00;8.70;98.30
12233;DHT22;6179;51.748;8.728;2023-04-24T13:18:01;8.50;98.30
12233;DHT22;6179;51.748;8.728;2023-04-24T13:24:02;8.70;98.30
12233;DHT22;6179;51.748;8.728;2023-04-24T13:30:05;8.80;98.30
12233;DHT22;6179;51.748;8.728;2023-04-24T13:36:06;8.80;98.30
12233;DHT22;6179;51.748;8.728;2023-04-24T13:42:07;8.80;98.30
12233;DHT22;6179;51.748;8.728;2023-04-24T13:48:08;9.20;98.30
12233;DHT22;6179;51.748;8.728;2023-04-24T13:54:09;9.10;98.30
12233;DHT22;6179;51.748;8.728;2023-04-24T14:00:10;9.00;98.30
12233;DHT22;6179;51.748;8.728;2023-04-24T14:06:11;9.10;98.30
12233;DHT22;6179;51.748;8.728;2023-04-24T14:12:12;9.40;98.30
12233;DHT22;6179;51.748;8.728;2023-04-24T14:18:13;9.50;98.30
12233;DHT22;6179;51.748;8.728;2023-04-24T14:24:13;9.60;98.30
12233;DHT22;6179;51.748;8.728;2023-04-24T14:30:14;9.30;98.30
12233;DHT22;6179;51.748;8.728;2023-04-24T14:36:16;9.60;98.30
12233;DHT22;6179;51.748;8.728;2023-04-24T14:42:17;9.70;98.30
12233;DHT22;6179;51.748;8.728;2023-04-24T14:48:18;9.30;98.30
12233;DHT22;6179;51.748;8.728;2023-04-24T14:54:19;9.20;98.30
12233;DHT22;6179;51.748;8.728;2023-04-24T15:00:23;9.50;98.30
12233;DHT22;6179;51.748;8.728;2023-04-24T15:06:24;9.10;98.30
12233;DHT22;6179;51.748;8.728;2023-04-24T15:12:25;9.20;98.30
12233;DHT22;6179;51.748;8.728;2023-04-24T15:18:25;9.40;98.30
12233;DHT22;6179;51.748;8.728;2023-04-24T15:24:28;9.40;98.30
12233;DHT22;6179;51.748;8.728;2023-04-24T15:30:29;9.20;98.30
12233;DHT22;6179;51.748;8.728;2023-04-24T15:36:29;9.50;98.30
12233;DHT22;6179;51.748;8.728;2023-04-24T15:42:30;9.60;98.30
12233;DHT22;6179;51.748;8.728;2023-04-24T15:48:31;9.40;98.30
12233;DHT22;6179;51.748;8.728;2023-04-24T15:54:32;9.10;98.30
12233;DHT22;6179;51.748;8.728;2023-04-24T16:00:32;9.50;98.30
12233;DHT22;6179;51.748;8.728;2023-04-24T16:06:34;9.30;98.30
12233;DHT22;6179;51.748;8.728;2023-04-24T16:12:35;9.10;98.30
12233;DHT22;6179;51.748;8.728;2023-04-24T16:18:35;8.70;98.30
12233;DHT22;6179;51.748;8.728;2023-04-24T16:24:36;9.00;98.30
12233;DHT22;6179;51.748;8.728;2023-04-24T16:30:37;8.90;98.30
12233;DHT22;6179;51.748;8.728;2023-04-24T16:36:39;9.00;98.30
12233;DHT22;6179;51.748;8.728;2023-04-24T16:42:40;8.70;98.30
12233;DHT22;6179;51.748;8.728;2023-04-24T16:48:41;8.70;98.30
12233;DHT22;6179;51.748;8.728;2023-04-24T16:54:41;9.00;98.30
12233;DHT22;6179;51.748;8.728;2023-04-24T17:00:42;9.00;98.30
12233;DHT22;6179;51.748;8.728;2023-04-24T17:06:43;9.10;98.30
12233;DHT22;6179;51.748;8.728;2023-04-24T17:12:43;9.10;98.30
12233;DHT22;6179;51.748;8.728;2023-04-24T17:18:44;9.30;98.30
12233;DHT22;6179;51.748;8.728;2023-04-24T17:24:45;9.40;98.30
12233;DHT22;6179;51.748;8.728;2023-04-24T17:30:45;9.30;98.30
12233;DHT22;6179;51.748;8.728;2023-04-24T17:36:46;9.50;98.30
12233;DHT22;6179;51.748;8.728;2023-04-24T17:42:47;9.50;98.30
12233;DHT22;6179;51.748;8.728;2023-04-24T17:48:47;9.10;98.30
12233;DHT22;6179;51.748;8.728;2023-04-24T17:54:48;9.00;98.30
12233;DHT22;6179;51.748;8.728;2023-04-24T18:00:49;8.80;98.00
12233;DHT22;6179;51.748;8.728;2023-04-24T18:06:50;8.80;98.30
12233;DHT22;6179;51.748;8.728;2023-04-24T18:12:51;8.50;98.30
12233;DHT22;6179;51.748;8.728;2023-04-24T18:18:52;8.70;98.30
12233;DHT22;6179;51.748;8.728;2023-04-24T18:24:53;8.50;98.30
12233;DHT22;6179;51.748;8.728;2023-04-24T18:30:54;8.60;98.30
12233;DHT22;6179;51.748;8.728;2023-04-24T18:36:55;8.80;98.30
12233;DHT22;6179;51.748;8.728;2023-04-24T18:42:55;8.60;98.30
12233;DHT22;6179;51.748;8.728;2023-04-24T18:48:56;9.00;98.30
12233;DHT22;6179;51.748;8.728;2023-04-24T18:54:57;9.00;98.30
12233;DHT22;6179;51.748;8.728;2023-04-24T19:00:57;9.20;98.30
12233;DHT22;6179;51.748;8.728;2023-04-24T19:06:58;8.90;98.30
12233;DHT22;6179;51.748;8.728;2023-04-24T19:12:59;9.20;98.30
12233;DHT22;6179;51.748;8.728;2023-04-24T19:19:01;9.20;97.60
12233;DHT22;6179;51.748;8.728;2023-04-24T19:25:02;9.30;97.00
12233;DHT22;6179;51.748;8.728;2023-04-24T19:31:03;9.20;97.50
12233;DHT22;6179;51.748;8.728;2023-04-24T19:37:03;9.20;96.80
12233;DHT22;6179;51.748;8.728;2023-04-24T19:43:04;8.90;98.30
12233;DHT22;6179;51.748;8.728;2023-04-24T19:49:06;8.70;98.30
12233;DHT22;6179;51.748;8.728;2023-04-24T19:55:07;8.40;98.30
12233;DHT22;6179;51.748;8.728;2023-04-24T20:01:08;8.20;98.30
12233;DHT22;6179;51.748;8.728;2023-04-24T20:07:09;8.10;98.10
12233;DHT22;6179;51.748;8.728;2023-04-24T20:13:10;8.10;97.20
12233;DHT22;6179;51.748;8.728;2023-04-24T20:19:11;7.90;97.60
12233;DHT22;6179;51.748;8.728;2023-04-24T20:25:11;7.90;98.10
12233;DHT22;6179;51.748;8.728;2023-04-24T20:31:13;8.00;97.20
12233;DHT22;6179;51.748;8.728;2023-04-24T20:37:14;7.90;97.40
12233;DHT22;6179;51.748;8.728;2023-04-24T20:43:14;7.70;97.90
12233;DHT22;6179;51.748;8.728;2023-04-24T20:49:15;7.60;97.60
12233;DHT22;6179;51.748;8.728;2023-04-24T20:55:16;7.60;98.30
12233;DHT22;6179;51.748;8.728;2023-04-24T21:01:17;7.60;98.30
12233;DHT22;6179;51.748;8.728;2023-04-24T21:07:18;7.40;98.30
12233;DHT22;6179;51.748;8.728;2023-04-24T21:13:18;7.40;98.30
12233;DHT22;6179;51.748;8.728;2023-04-24T21:19:19;7.20;98.30
12233;DHT22;6179;51.748;8.728;2023-04-24T21:25:20;7.20;98.30
12233;DHT22;6179;51.748;8.728;2023-04-24T21:31:20;7.10;98.30
12233;DHT22;6179;51.748;8.728;2023-04-24T21:37:21;7.50;98.30
12233;DHT22;6179;51.748;8.728;2023-04-24T21:43:22;7.40;98.30
12233;DHT22;6179;51.748;8.728;2023-04-24T21:49:22;7.40;98.30
12233;DHT22;6179;51.748;8.728;2023-04-24T21:55:23;7.10;98.30
12233;DHT22;6179;51.748;8.728;2023-04-24T22:01:23;7.00;98.30
12233;DHT22;6179;51.748;8.728;2023-04-24T22:07:24;7.00;98.30
12233;DHT22;6179;51.748;8.728;2023-04-24T22:13:25;7.00;98.30
12233;DHT22;6179;51.748;8.728;2023-04-24T22:19:26;6.80;98.30
12233;DHT22;6179;51.748;8.728;2023-04-24T22:25:27;6.90;98.30
12233;DHT22;6179;51.748;8.728;2023-04-24T22:31:28;6.70;98.30
12233;DHT22;6179;51.748;8.728;2023-04-24T22:37:28;6.80;98.30
12233;DHT22;6179;51.748;8.728;2023-04-24T22:43:30;6.70;98.30
12233;DHT22;6179;51.748;8.728;2023-04-24T22:49:31;6.70;98.30
12233;DHT22;6179;51.748;8.728;2023-04-24T22:55:34;6.90;98.30
12233;DHT22;6179;51.748;8.728;2023-04-24T23:01:35;6.90;98.30
12233;DHT22;6179;51.748;8.728;2023-04-24T23:07:36;7.10;98.30
12233;DHT22;6179;51.748;8.728;2023-04-24T23:13:37;7.40;97.50
12233;DHT22;6179;51.748;8.728;2023-04-24T23:19:40;7.10;98.30
12233;DHT22;6179;51.748;8.728;2023-04-24T23:25:40;7.00;98.30
12233;DHT22;6179;51.748;8.728;2023-04-24T23:31:41;6.80;98.30
12233;DHT22;6179;51.748;8.728;2023-04-24T23:37:41;6.80;98.30
12233;DHT22;6179;51.748;8.728;2023-04-24T23:43:42;6.80;98.30
12233;DHT22;6179;51.748;8.728;2023-04-24T23:49:43;6.90;98.30
12233;DHT22;6179;51.748;8.728;2023-04-24T23:55:43;6.80;98.30
